sensor_id;sensor_type;location;lat;lon;timestamp;pressure;altitude;pressure_sealevel;temperature
19666;BMP180;9980;51.020;7.772;2023-12-28T00:02:15;97063.00;;;11.20
19666;BMP180;9980;51.020;7.772;2023-12-28T00:04:42;97059.00;;;11.20
19666;BMP180;9980;51.020;7.772;2023-12-28T00:07:09;97064.00;;;11.10
19666;BMP180;9980;51.020;7.772;2023-12-28T00:09:36;97079.00;;;11.10
19666;BMP180;9980;51.020;7.772;2023-12-28T00:12:04;97090.00;;;11.10
19666;BMP180;9980;51.020;7.772;2023-12-28T00:14:32;97084.00;;;11.10
19666;BMP180;9980;51.020;7.772;2023-12-28T00:16:59;97079.00;;;11.10
19666;BMP180;9980;51.020;7.772;2023-12-28T00:19:26;97089.00;;;11.10
19666;BMP180;9980;51.020;7.772;2023-12-28T00:21:52;97088.00;;;11.10
19666;BMP180;9980;51.020;7.772;2023-12-28T00:24:20;97086.00;;;11.10
19666;BMP180;9980;51.020;7.772;2023-12-28T00:26:48;97094.00;;;11.10
19666;BMP180;9980;51.020;7.772;2023-12-28T00:29:15;97093.00;;;11.10
19666;BMP180;9980;51.020;7.772;2023-12-28T00:31:42;97105.00;;;11.10
19666;BMP180;9980;51.020;7.772;2023-12-28T00:34:09;97112.00;;;11.10
19666;BMP180;9980;51.020;7.772;2023-12-28T00:36:36;97098.00;;;11.10
19666;BMP180;9980;51.020;7.772;2023-12-28T00:39:03;97094.00;;;11.00
19666;BMP180;9980;51.020;7.772;2023-12-28T00:41:30;97116.00;;;11.00
19666;BMP180;9980;51.020;7.772;2023-12-28T00:43:57;97106.00;;;11.00
19666;BMP180;9980;51.020;7.772;2023-12-28T00:46:24;97125.00;;;11.00
19666;BMP180;9980;51.020;7.772;2023-12-28T00:48:51;97135.00;;;11.00
19666;BMP180;9980;51.020;7.772;2023-12-28T00:51:18;97136.00;;;11.00
19666;BMP180;9980;51.020;7.772;2023-12-28T00:53:46;97135.00;;;10.90
19666;BMP180;9980;51.020;7.772;2023-12-28T00:56:12;97120.00;;;10.90
19666;BMP180;9980;51.020;7.772;2023-12-28T00:58:40;97138.00;;;10.90
19666;BMP180;9980;51.020;7.772;2023-12-28T01:01:08;97172.00;;;10.90
19666;BMP180;9980;51.020;7.772;2023-12-28T01:03:35;97168.00;;;10.90
19666;BMP180;9980;51.020;7.772;2023-12-28T01:06:03;97157.00;;;10.80
19666;BMP180;9980;51.020;7.772;2023-12-28T01:08:30;97154.00;;;10.80
19666;BMP180;9980;51.020;7.772;2023-12-28T01:10:57;97162.00;;;10.80
19666;BMP180;9980;51.020;7.772;2023-12-28T01:13:24;97164.00;;;10.80
19666;BMP180;9980;51.020;7.772;2023-12-28T01:15:51;97166.00;;;10.80
19666;BMP180;9980;51.020;7.772;2023-12-28T01:18:18;97153.00;;;10.80
19666;BMP180;9980;51.020;7.772;2023-12-28T01:20:46;97164.00;;;10.70
19666;BMP180;9980;51.020;7.772;2023-12-28T01:23:13;97170.00;;;10.70
19666;BMP180;9980;51.020;7.772;2023-12-28T01:25:40;97150.00;;;10.70
19666;BMP180;9980;51.020;7.772;2023-12-28T01:28:07;97161.00;;;10.70
19666;BMP180;9980;51.020;7.772;2023-12-28T01:30:33;97161.00;;;10.70
19666;BMP180;9980;51.020;7.772;2023-12-28T01:33:02;97161.00;;;10.70
19666;BMP180;9980;51.020;7.772;2023-12-28T01:35:29;97175.00;;;10.60
19666;BMP180;9980;51.020;7.772;2023-12-28T01:37:56;97171.00;;;10.60
19666;BMP180;9980;51.020;7.772;2023-12-28T01:40:24;97177.00;;;10.60
19666;BMP180;9980;51.020;7.772;2023-12-28T01:42:52;97189.00;;;10.60
19666;BMP180;9980;51.020;7.772;2023-12-28T01:45:19;97175.00;;;10.60
19666;BMP180;9980;51.020;7.772;2023-12-28T01:47:48;97162.00;;;10.60
19666;BMP180;9980;51.020;7.772;2023-12-28T01:50:16;97185.00;;;10.60
19666;BMP180;9980;51.020;7.772;2023-12-28T01:52:43;97174.00;;;10.60
19666;BMP180;9980;51.020;7.772;2023-12-28T01:55:11;97188.00;;;10.60
19666;BMP180;9980;51.020;7.772;2023-12-28T01:57:39;97188.00;;;10.60
19666;BMP180;9980;51.020;7.772;2023-12-28T02:00:07;97186.00;;;10.60
19666;BMP180;9980;51.020;7.772;2023-12-28T02:02:41;97191.00;;;10.60
19666;BMP180;9980;51.020;7.772;2023-12-28T02:05:11;97174.00;;;10.60
19666;BMP180;9980;51.020;7.772;2023-12-28T02:07:40;97175.00;;;10.60
19666;BMP180;9980;51.020;7.772;2023-12-28T02:10:08;97155.00;;;10.70
19666;BMP180;9980;51.020;7.772;2023-12-28T02:12:35;97175.00;;;10.70
19666;BMP180;9980;51.020;7.772;2023-12-28T02:15:03;97184.00;;;10.70
19666;BMP180;9980;51.020;7.772;2023-12-28T02:17:38;97179.00;;;10.70
19666;BMP180;9980;51.020;7.772;2023-12-28T02:20:09;97179.00;;;10.70
19666;BMP180;9980;51.020;7.772;2023-12-28T02:22:38;97196.00;;;10.70
19666;BMP180;9980;51.020;7.772;2023-12-28T02:25:11;97201.00;;;10.70
19666;BMP180;9980;51.020;7.772;2023-12-28T02:27:47;97183.00;;;10.70
19666;BMP180;9980;51.020;7.772;2023-12-28T02:30:21;97193.00;;;10.70
19666;BMP180;9980;51.020;7.772;2023-12-28T02:33:11;97195.00;;;10.70
19666;BMP180;9980;51.020;7.772;2023-12-28T02:35:52;97188.00;;;10.70
19666;BMP180;9980;51.020;7.772;2023-12-28T02:38:24;97185.00;;;10.70
19666;BMP180;9980;51.020;7.772;2023-12-28T02:40:51;97195.00;;;10.70
19666;BMP180;9980;51.020;7.772;2023-12-28T02:43:19;97184.00;;;10.70
19666;BMP180;9980;51.020;7.772;2023-12-28T02:45:46;97169.00;;;10.70
19666;BMP180;9980;51.020;7.772;2023-12-28T02:48:13;97183.00;;;10.70
19666;BMP180;9980;51.020;7.772;2023-12-28T02:50:40;97176.00;;;10.70
19666;BMP180;9980;51.020;7.772;2023-12-28T02:53:07;97179.00;;;10.70
19666;BMP180;9980;51.020;7.772;2023-12-28T02:55:34;97186.00;;;10.70
19666;BMP180;9980;51.020;7.772;2023-12-28T02:58:01;97172.00;;;10.70
19666;BMP180;9980;51.020;7.772;2023-12-28T03:00:29;97154.00;;;10.70
19666;BMP180;9980;51.020;7.772;2023-12-28T03:02:57;97171.00;;;10.70
19666;BMP180;9980;51.020;7.772;2023-12-28T03:05:24;97188.00;;;10.60
19666;BMP180;9980;51.020;7.772;2023-12-28T03:07:51;97181.00;;;10.60
19666;BMP180;9980;51.020;7.772;2023-12-28T03:10:18;97177.00;;;10.70
19666;BMP180;9980;51.020;7.772;2023-12-28T03:12:45;97172.00;;;10.70
19666;BMP180;9980;51.020;7.772;2023-12-28T03:15:13;97176.00;;;10.60
19666;BMP180;9980;51.020;7.772;2023-12-28T03:17:40;97182.00;;;10.60
19666;BMP180;9980;51.020;7.772;2023-12-28T03:20:09;97176.00;;;10.70
19666;BMP180;9980;51.020;7.772;2023-12-28T03:22:37;97163.00;;;10.70
19666;BMP180;9980;51.020;7.772;2023-12-28T03:25:04;97163.00;;;10.70
19666;BMP180;9980;51.020;7.772;2023-12-28T03:27:32;97164.00;;;10.70
19666;BMP180;9980;51.020;7.772;2023-12-28T03:29:59;97185.00;;;10.70
19666;BMP180;9980;51.020;7.772;2023-12-28T03:32:26;97183.00;;;10.70
19666;BMP180;9980;51.020;7.772;2023-12-28T03:34:53;97180.00;;;10.80
19666;BMP180;9980;51.020;7.772;2023-12-28T03:37:20;97167.00;;;10.80
19666;BMP180;9980;51.020;7.772;2023-12-28T03:39:47;97167.00;;;10.80
19666;BMP180;9980;51.020;7.772;2023-12-28T03:42:14;97169.00;;;10.80
19666;BMP180;9980;51.020;7.772;2023-12-28T03:44:41;97179.00;;;10.80
19666;BMP180;9980;51.020;7.772;2023-12-28T03:47:08;97167.00;;;10.80
19666;BMP180;9980;51.020;7.772;2023-12-28T03:49:35;97174.00;;;10.90
19666;BMP180;9980;51.020;7.772;2023-12-28T03:52:02;97173.00;;;10.90
19666;BMP180;9980;51.020;7.772;2023-12-28T03:54:29;97181.00;;;10.90
19666;BMP180;9980;51.020;7.772;2023-12-28T03:56:57;97179.00;;;10.90
19666;BMP180;9980;51.020;7.772;2023-12-28T03:59:24;97189.00;;;10.90
19666;BMP180;9980;51.020;7.772;2023-12-28T04:01:51;97197.00;;;10.90
19666;BMP180;9980;51.020;7.772;2023-12-28T04:04:18;97191.00;;;10.90
19666;BMP180;9980;51.020;7.772;2023-12-28T04:06:45;97206.00;;;10.90
19666;BMP180;9980;51.020;7.772;2023-12-28T04:09:13;97191.00;;;10.90
19666;BMP180;9980;51.020;7.772;2023-12-28T04:11:40;97194.00;;;11.00
19666;BMP180;9980;51.020;7.772;2023-12-28T04:14:07;97198.00;;;11.00
19666;BMP180;9980;51.020;7.772;2023-12-28T04:16:34;97188.00;;;11.00
19666;BMP180;9980;51.020;7.772;2023-12-28T04:19:02;97185.00;;;11.00
19666;BMP180;9980;51.020;7.772;2023-12-28T04:21:29;97186.00;;;11.00
19666;BMP180;9980;51.020;7.772;2023-12-28T04:23:56;97178.00;;;11.00
19666;BMP180;9980;51.020;7.772;2023-12-28T04:26:23;97185.00;;;11.00
19666;BMP180;9980;51.020;7.772;2023-12-28T04:28:50;97178.00;;;11.00
19666;BMP180;9980;51.020;7.772;2023-12-28T04:31:17;97176.00;;;11.00
19666;BMP180;9980;51.020;7.772;2023-12-28T04:33:44;97173.00;;;11.00
19666;BMP180;9980;51.020;7.772;2023-12-28T04:36:11;97193.00;;;11.00
19666;BMP180;9980;51.020;7.772;2023-12-28T04:38:39;97181.00;;;11.00
19666;BMP180;9980;51.020;7.772;2023-12-28T04:41:06;97194.00;;;11.00
19666;BMP180;9980;51.020;7.772;2023-12-28T04:43:33;97188.00;;;11.00
19666;BMP180;9980;51.020;7.772;2023-12-28T04:46:06;97200.00;;;11.00
19666;BMP180;9980;51.020;7.772;2023-12-28T04:48:33;97185.00;;;11.00
19666;BMP180;9980;51.020;7.772;2023-12-28T04:51:03;97181.00;;;11.00
19666;BMP180;9980;51.020;7.772;2023-12-28T04:53:30;97183.00;;;11.00
19666;BMP180;9980;51.020;7.772;2023-12-28T04:55:57;97176.00;;;11.00
19666;BMP180;9980;51.020;7.772;2023-12-28T04:58:24;97183.00;;;11.00
19666;BMP180;9980;51.020;7.772;2023-12-28T05:00:51;97197.00;;;11.00
19666;BMP180;9980;51.020;7.772;2023-12-28T05:03:18;97183.00;;;10.90
19666;BMP180;9980;51.020;7.772;2023-12-28T05:05:46;97186.00;;;10.90
19666;BMP180;9980;51.020;7.772;2023-12-28T05:08:15;97186.00;;;10.90
19666;BMP180;9980;51.020;7.772;2023-12-28T05:10:42;97181.00;;;10.90
19666;BMP180;9980;51.020;7.772;2023-12-28T05:13:10;97186.00;;;10.90
19666;BMP180;9980;51.020;7.772;2023-12-28T05:15:37;97193.00;;;10.90
19666;BMP180;9980;51.020;7.772;2023-12-28T05:18:04;97177.00;;;10.90
19666;BMP180;9980;51.020;7.772;2023-12-28T05:20:34;97176.00;;;10.80
19666;BMP180;9980;51.020;7.772;2023-12-28T05:23:01;97179.00;;;10.80
19666;BMP180;9980;51.020;7.772;2023-12-28T05:25:28;97181.00;;;10.80
19666;BMP180;9980;51.020;7.772;2023-12-28T05:27:54;97174.00;;;10.80
19666;BMP180;9980;51.020;7.772;2023-12-28T05:30:22;97174.00;;;10.80
19666;BMP180;9980;51.020;7.772;2023-12-28T05:32:49;97184.00;;;10.80
19666;BMP180;9980;51.020;7.772;2023-12-28T05:35:16;97192.00;;;10.80
19666;BMP180;9980;51.020;7.772;2023-12-28T05:37:43;97189.00;;;10.70
19666;BMP180;9980;51.020;7.772;2023-12-28T05:40:10;97188.00;;;10.70
19666;BMP180;9980;51.020;7.772;2023-12-28T05:42:37;97202.00;;;10.70
19666;BMP180;9980;51.020;7.772;2023-12-28T05:45:05;97199.00;;;10.70
19666;BMP180;9980;51.020;7.772;2023-12-28T05:47:32;97215.00;;;10.70
19666;BMP180;9980;51.020;7.772;2023-12-28T05:49:59;97204.00;;;10.70
19666;BMP180;9980;51.020;7.772;2023-12-28T05:52:26;97198.00;;;10.70
19666;BMP180;9980;51.020;7.772;2023-12-28T05:54:54;97209.00;;;10.70
19666;BMP180;9980;51.020;7.772;2023-12-28T05:57:23;97222.00;;;10.70
19666;BMP180;9980;51.020;7.772;2023-12-28T05:59:52;97198.00;;;10.60
19666;BMP180;9980;51.020;7.772;2023-12-28T06:02:18;97217.00;;;10.60
19666;BMP180;9980;51.020;7.772;2023-12-28T06:04:46;97218.00;;;10.60
19666;BMP180;9980;51.020;7.772;2023-12-28T06:07:13;97210.00;;;10.60
19666;BMP180;9980;51.020;7.772;2023-12-28T06:09:40;97227.00;;;10.60
19666;BMP180;9980;51.020;7.772;2023-12-28T06:12:07;97222.00;;;10.60
19666;BMP180;9980;51.020;7.772;2023-12-28T06:14:34;97235.00;;;10.60
19666;BMP180;9980;51.020;7.772;2023-12-28T06:17:01;97230.00;;;10.60
19666;BMP180;9980;51.020;7.772;2023-12-28T06:19:28;97216.00;;;10.60
19666;BMP180;9980;51.020;7.772;2023-12-28T06:21:55;97222.00;;;10.60
19666;BMP180;9980;51.020;7.772;2023-12-28T06:24:22;97223.00;;;10.60
19666;BMP180;9980;51.020;7.772;2023-12-28T06:26:49;97234.00;;;10.60
19666;BMP180;9980;51.020;7.772;2023-12-28T06:29:16;97232.00;;;10.60
19666;BMP180;9980;51.020;7.772;2023-12-28T06:31:42;97223.00;;;10.60
19666;BMP180;9980;51.020;7.772;2023-12-28T06:34:10;97235.00;;;10.60
19666;BMP180;9980;51.020;7.772;2023-12-28T06:36:37;97240.00;;;10.60
19666;BMP180;9980;51.020;7.772;2023-12-28T06:39:04;97235.00;;;10.60
19666;BMP180;9980;51.020;7.772;2023-12-28T06:41:32;97267.00;;;10.60
19666;BMP180;9980;51.020;7.772;2023-12-28T06:43:58;97246.00;;;10.60
19666;BMP180;9980;51.020;7.772;2023-12-28T06:46:25;97248.00;;;10.60
19666;BMP180;9980;51.020;7.772;2023-12-28T06:48:52;97252.00;;;10.60
19666;BMP180;9980;51.020;7.772;2023-12-28T06:51:20;97240.00;;;10.60
19666;BMP180;9980;51.020;7.772;2023-12-28T06:53:48;97257.00;;;10.60
19666;BMP180;9980;51.020;7.772;2023-12-28T06:56:17;97252.00;;;10.60
19666;BMP180;9980;51.020;7.772;2023-12-28T06:58:44;97239.00;;;10.60
19666;BMP180;9980;51.020;7.772;2023-12-28T07:01:11;97246.00;;;10.60
19666;BMP180;9980;51.020;7.772;2023-12-28T07:03:40;97244.00;;;10.60
19666;BMP180;9980;51.020;7.772;2023-12-28T07:06:07;97246.00;;;10.60
19666;BMP180;9980;51.020;7.772;2023-12-28T07:08:35;97246.00;;;10.60
19666;BMP180;9980;51.020;7.772;2023-12-28T07:11:03;97261.00;;;10.60
19666;BMP180;9980;51.020;7.772;2023-12-28T07:13:31;97262.00;;;10.60
19666;BMP180;9980;51.020;7.772;2023-12-28T07:15:58;97264.00;;;10.60
19666;BMP180;9980;51.020;7.772;2023-12-28T07:18:27;97255.00;;;10.60
19666;BMP180;9980;51.020;7.772;2023-12-28T07:20:55;97262.00;;;10.50
19666;BMP180;9980;51.020;7.772;2023-12-28T07:23:22;97263.00;;;10.50
19666;BMP180;9980;51.020;7.772;2023-12-28T07:25:49;97263.00;;;10.50
19666;BMP180;9980;51.020;7.772;2023-12-28T07:28:16;97265.00;;;10.50
19666;BMP180;9980;51.020;7.772;2023-12-28T07:30:43;97269.00;;;10.50
19666;BMP180;9980;51.020;7.772;2023-12-28T07:33:10;97274.00;;;10.50
19666;BMP180;9980;51.020;7.772;2023-12-28T07:35:38;97274.00;;;10.50
19666;BMP180;9980;51.020;7.772;2023-12-28T07:38:05;97272.00;;;10.50
19666;BMP180;9980;51.020;7.772;2023-12-28T07:40:32;97281.00;;;10.50
19666;BMP180;9980;51.020;7.772;2023-12-28T07:42:59;97290.00;;;10.50
19666;BMP180;9980;51.020;7.772;2023-12-28T07:45:28;97266.00;;;10.50
19666;BMP180;9980;51.020;7.772;2023-12-28T07:47:56;97280.00;;;10.60
19666;BMP180;9980;51.020;7.772;2023-12-28T07:50:25;97280.00;;;10.60
19666;BMP180;9980;51.020;7.772;2023-12-28T07:52:52;97285.00;;;10.60
19666;BMP180;9980;51.020;7.772;2023-12-28T07:55:19;97281.00;;;10.60
19666;BMP180;9980;51.020;7.772;2023-12-28T07:57:46;97283.00;;;10.60
19666;BMP180;9980;51.020;7.772;2023-12-28T08:00:13;97294.00;;;10.60
19666;BMP180;9980;51.020;7.772;2023-12-28T08:02:41;97280.00;;;10.60
19666;BMP180;9980;51.020;7.772;2023-12-28T08:05:08;97288.00;;;10.60
19666;BMP180;9980;51.020;7.772;2023-12-28T08:07:36;97289.00;;;10.60
19666;BMP180;9980;51.020;7.772;2023-12-28T08:10:03;97289.00;;;10.70
19666;BMP180;9980;51.020;7.772;2023-12-28T08:12:30;97279.00;;;10.70
19666;BMP180;9980;51.020;7.772;2023-12-28T08:14:59;97277.00;;;10.70
19666;BMP180;9980;51.020;7.772;2023-12-28T08:17:26;97280.00;;;10.80
19666;BMP180;9980;51.020;7.772;2023-12-28T08:19:53;97274.00;;;10.80
19666;BMP180;9980;51.020;7.772;2023-12-28T08:22:20;97275.00;;;10.80
19666;BMP180;9980;51.020;7.772;2023-12-28T08:24:47;97284.00;;;10.80
19666;BMP180;9980;51.020;7.772;2023-12-28T08:27:14;97267.00;;;10.80
19666;BMP180;9980;51.020;7.772;2023-12-28T08:29:41;97266.00;;;10.90
19666;BMP180;9980;51.020;7.772;2023-12-28T08:32:09;97281.00;;;10.90
19666;BMP180;9980;51.020;7.772;2023-12-28T08:34:37;97280.00;;;10.90
19666;BMP180;9980;51.020;7.772;2023-12-28T08:37:04;97292.00;;;10.90
19666;BMP180;9980;51.020;7.772;2023-12-28T08:39:31;97291.00;;;10.90
19666;BMP180;9980;51.020;7.772;2023-12-28T08:41:59;97303.00;;;11.00
19666;BMP180;9980;51.020;7.772;2023-12-28T08:44:26;97317.00;;;11.00
19666;BMP180;9980;51.020;7.772;2023-12-28T08:46:53;97305.00;;;11.00
19666;BMP180;9980;51.020;7.772;2023-12-28T08:49:19;97318.00;;;11.10
19666;BMP180;9980;51.020;7.772;2023-12-28T08:51:47;97323.00;;;11.10
19666;BMP180;9980;51.020;7.772;2023-12-28T08:54:14;97310.00;;;11.20
19666;BMP180;9980;51.020;7.772;2023-12-28T08:56:41;97308.00;;;11.20
19666;BMP180;9980;51.020;7.772;2023-12-28T08:59:08;97320.00;;;11.20
19666;BMP180;9980;51.020;7.772;2023-12-28T09:01:35;97317.00;;;11.30
19666;BMP180;9980;51.020;7.772;2023-12-28T09:04:03;97324.00;;;11.30
19666;BMP180;9980;51.020;7.772;2023-12-28T09:06:30;97314.00;;;11.30
19666;BMP180;9980;51.020;7.772;2023-12-28T09:08:57;97329.00;;;11.30
19666;BMP180;9980;51.020;7.772;2023-12-28T09:11:24;97338.00;;;11.30
19666;BMP180;9980;51.020;7.772;2023-12-28T09:13:51;97331.00;;;11.40
19666;BMP180;9980;51.020;7.772;2023-12-28T09:16:18;97329.00;;;11.40
19666;BMP180;9980;51.020;7.772;2023-12-28T09:18:45;97315.00;;;11.40
19666;BMP180;9980;51.020;7.772;2023-12-28T09:21:13;97322.00;;;11.50
19666;BMP180;9980;51.020;7.772;2023-12-28T09:23:40;97320.00;;;11.50
19666;BMP180;9980;51.020;7.772;2023-12-28T09:26:07;97340.00;;;11.50
19666;BMP180;9980;51.020;7.772;2023-12-28T09:28:35;97336.00;;;11.60
19666;BMP180;9980;51.020;7.772;2023-12-28T09:31:03;97346.00;;;11.60
19666;BMP180;9980;51.020;7.772;2023-12-28T09:33:30;97342.00;;;11.60
19666;BMP180;9980;51.020;7.772;2023-12-28T09:35:58;97340.00;;;11.70
19666;BMP180;9980;51.020;7.772;2023-12-28T09:38:25;97333.00;;;11.70
19666;BMP180;9980;51.020;7.772;2023-12-28T09:40:54;97346.00;;;11.70
19666;BMP180;9980;51.020;7.772;2023-12-28T09:43:24;97371.00;;;11.80
19666;BMP180;9980;51.020;7.772;2023-12-28T09:45:54;97363.00;;;11.80
19666;BMP180;9980;51.020;7.772;2023-12-28T09:48:22;97370.00;;;11.80
19666;BMP180;9980;51.020;7.772;2023-12-28T09:50:51;97375.00;;;11.80
19666;BMP180;9980;51.020;7.772;2023-12-28T09:53:23;97374.00;;;11.90
19666;BMP180;9980;51.020;7.772;2023-12-28T09:55:51;97354.00;;;11.90
19666;BMP180;9980;51.020;7.772;2023-12-28T09:58:21;97359.00;;;11.90
19666;BMP180;9980;51.020;7.772;2023-12-28T10:00:50;97360.00;;;11.90
19666;BMP180;9980;51.020;7.772;2023-12-28T10:03:19;97360.00;;;12.00
19666;BMP180;9980;51.020;7.772;2023-12-28T10:05:46;97354.00;;;12.00
19666;BMP180;9980;51.020;7.772;2023-12-28T10:08:15;97353.00;;;12.00
19666;BMP180;9980;51.020;7.772;2023-12-28T10:10:44;97366.00;;;12.10
19666;BMP180;9980;51.020;7.772;2023-12-28T10:13:17;97360.00;;;12.10
19666;BMP180;9980;51.020;7.772;2023-12-28T10:15:44;97372.00;;;12.10
19666;BMP180;9980;51.020;7.772;2023-12-28T10:18:11;97359.00;;;12.20
19666;BMP180;9980;51.020;7.772;2023-12-28T10:20:39;97349.00;;;12.20
19666;BMP180;9980;51.020;7.772;2023-12-28T10:23:06;97360.00;;;12.30
19666;BMP180;9980;51.020;7.772;2023-12-28T10:25:35;97356.00;;;12.30
19666;BMP180;9980;51.020;7.772;2023-12-28T10:28:06;97354.00;;;12.30
19666;BMP180;9980;51.020;7.772;2023-12-28T10:30:33;97355.00;;;12.40
19666;BMP180;9980;51.020;7.772;2023-12-28T10:33:01;97339.00;;;12.50
19666;BMP180;9980;51.020;7.772;2023-12-28T10:35:29;97338.00;;;12.50
19666;BMP180;9980;51.020;7.772;2023-12-28T10:38:00;97342.00;;;12.60
19666;BMP180;9980;51.020;7.772;2023-12-28T10:40:30;97339.00;;;12.60
19666;BMP180;9980;51.020;7.772;2023-12-28T10:43:06;97321.00;;;12.70
19666;BMP180;9980;51.020;7.772;2023-12-28T10:45:35;97322.00;;;12.70
19666;BMP180;9980;51.020;7.772;2023-12-28T10:48:06;97328.00;;;12.80
19666;BMP180;9980;51.020;7.772;2023-12-28T10:50:42;97324.00;;;12.80
19666;BMP180;9980;51.020;7.772;2023-12-28T10:53:40;97311.00;;;12.80
19666;BMP180;9980;51.020;7.772;2023-12-28T10:56:40;97320.00;;;12.90
19666;BMP180;9980;51.020;7.772;2023-12-28T10:59:42;97314.00;;;13.00
19666;BMP180;9980;51.020;7.772;2023-12-28T11:02:14;97304.00;;;13.10
19666;BMP180;9980;51.020;7.772;2023-12-28T11:04:48;97301.00;;;13.20
19666;BMP180;9980;51.020;7.772;2023-12-28T11:07:18;97300.00;;;13.20
19666;BMP180;9980;51.020;7.772;2023-12-28T11:09:46;97307.00;;;13.30
19666;BMP180;9980;51.020;7.772;2023-12-28T11:12:15;97292.00;;;13.40
19666;BMP180;9980;51.020;7.772;2023-12-28T11:14:47;97302.00;;;13.40
19666;BMP180;9980;51.020;7.772;2023-12-28T11:17:16;97294.00;;;13.50
19666;BMP180;9980;51.020;7.772;2023-12-28T11:19:44;97300.00;;;13.60
19666;BMP180;9980;51.020;7.772;2023-12-28T11:22:11;97288.00;;;13.70
19666;BMP180;9980;51.020;7.772;2023-12-28T11:24:39;97280.00;;;13.70
19666;BMP180;9980;51.020;7.772;2023-12-28T11:27:06;97294.00;;;13.80
19666;BMP180;9980;51.020;7.772;2023-12-28T11:29:37;97289.00;;;13.90
19666;BMP180;9980;51.020;7.772;2023-12-28T11:32:04;97293.00;;;14.00
19666;BMP180;9980;51.020;7.772;2023-12-28T11:34:32;97288.00;;;14.00
19666;BMP180;9980;51.020;7.772;2023-12-28T11:37:13;97284.00;;;14.10
19666;BMP180;9980;51.020;7.772;2023-12-28T11:39:45;97281.00;;;14.10
19666;BMP180;9980;51.020;7.772;2023-12-28T11:42:19;97274.00;;;14.10
19666;BMP180;9980;51.020;7.772;2023-12-28T11:44:46;97261.00;;;14.20
19666;BMP180;9980;51.020;7.772;2023-12-28T11:47:21;97263.00;;;14.20
19666;BMP180;9980;51.020;7.772;2023-12-28T11:49:49;97266.00;;;14.30
19666;BMP180;9980;51.020;7.772;2023-12-28T11:52:26;97263.00;;;14.20
19666;BMP180;9980;51.020;7.772;2023-12-28T11:54:54;97257.00;;;14.30
19666;BMP180;9980;51.020;7.772;2023-12-28T11:57:21;97260.00;;;14.30
19666;BMP180;9980;51.020;7.772;2023-12-28T11:59:58;97253.00;;;14.30
19666;BMP180;9980;51.020;7.772;2023-12-28T12:02:26;97258.00;;;14.40
19666;BMP180;9980;51.020;7.772;2023-12-28T12:04:54;97262.00;;;14.50
19666;BMP180;9980;51.020;7.772;2023-12-28T12:07:24;97258.00;;;14.50
19666;BMP180;9980;51.020;7.772;2023-12-28T12:09:59;97253.00;;;14.50
19666;BMP180;9980;51.020;7.772;2023-12-28T12:12:27;97267.00;;;14.60
19666;BMP180;9980;51.020;7.772;2023-12-28T12:14:54;97260.00;;;14.60
19666;BMP180;9980;51.020;7.772;2023-12-28T12:17:23;97260.00;;;14.60
19666;BMP180;9980;51.020;7.772;2023-12-28T12:19:51;97248.00;;;14.70
19666;BMP180;9980;51.020;7.772;2023-12-28T12:22:22;97242.00;;;14.70
19666;BMP180;9980;51.020;7.772;2023-12-28T12:24:55;97238.00;;;14.70
19666;BMP180;9980;51.020;7.772;2023-12-28T12:27:23;97231.00;;;14.70
19666;BMP180;9980;51.020;7.772;2023-12-28T12:29:50;97238.00;;;14.70
19666;BMP180;9980;51.020;7.772;2023-12-28T12:32:17;97246.00;;;14.70
19666;BMP180;9980;51.020;7.772;2023-12-28T12:34:44;97230.00;;;14.60
19666;BMP180;9980;51.020;7.772;2023-12-28T12:37:11;97228.00;;;14.60
19666;BMP180;9980;51.020;7.772;2023-12-28T12:39:38;97220.00;;;14.60
19666;BMP180;9980;51.020;7.772;2023-12-28T12:42:05;97233.00;;;14.70
19666;BMP180;9980;51.020;7.772;2023-12-28T12:44:34;97219.00;;;14.70
19666;BMP180;9980;51.020;7.772;2023-12-28T12:47:02;97216.00;;;14.70
19666;BMP180;9980;51.020;7.772;2023-12-28T12:49:29;97219.00;;;14.70
19666;BMP180;9980;51.020;7.772;2023-12-28T12:51:56;97227.00;;;14.70
19666;BMP180;9980;51.020;7.772;2023-12-28T12:54:27;97225.00;;;14.70
19666;BMP180;9980;51.020;7.772;2023-12-28T12:56:55;97241.00;;;14.70
19666;BMP180;9980;51.020;7.772;2023-12-28T12:59:23;97216.00;;;14.70
19666;BMP180;9980;51.020;7.772;2023-12-28T13:01:52;97215.00;;;14.70
19666;BMP180;9980;51.020;7.772;2023-12-28T13:04:20;97226.00;;;14.70
19666;BMP180;9980;51.020;7.772;2023-12-28T13:06:49;97233.00;;;14.70
19666;BMP180;9980;51.020;7.772;2023-12-28T13:09:16;97242.00;;;14.60
19666;BMP180;9980;51.020;7.772;2023-12-28T13:11:43;97222.00;;;14.60
19666;BMP180;9980;51.020;7.772;2023-12-28T13:14:10;97228.00;;;14.60
19666;BMP180;9980;51.020;7.772;2023-12-28T13:16:37;97233.00;;;14.60
19666;BMP180;9980;51.020;7.772;2023-12-28T13:19:04;97229.00;;;14.60
19666;BMP180;9980;51.020;7.772;2023-12-28T13:21:31;97212.00;;;14.50
19666;BMP180;9980;51.020;7.772;2023-12-28T13:23:58;97215.00;;;14.50
19666;BMP180;9980;51.020;7.772;2023-12-28T13:26:28;97218.00;;;14.50
19666;BMP180;9980;51.020;7.772;2023-12-28T13:28:55;97212.00;;;14.50
19666;BMP180;9980;51.020;7.772;2023-12-28T13:31:23;97214.00;;;14.50
19666;BMP180;9980;51.020;7.772;2023-12-28T13:33:52;97206.00;;;14.50
19666;BMP180;9980;51.020;7.772;2023-12-28T13:36:19;97197.00;;;14.50
19666;BMP180;9980;51.020;7.772;2023-12-28T13:38:46;97199.00;;;14.50
19666;BMP180;9980;51.020;7.772;2023-12-28T13:41:13;97198.00;;;14.40
19666;BMP180;9980;51.020;7.772;2023-12-28T13:43:40;97196.00;;;14.40
19666;BMP180;9980;51.020;7.772;2023-12-28T13:46:06;97184.00;;;14.40
19666;BMP180;9980;51.020;7.772;2023-12-28T13:48:33;97186.00;;;14.40
19666;BMP180;9980;51.020;7.772;2023-12-28T13:51:02;97189.00;;;14.30
19666;BMP180;9980;51.020;7.772;2023-12-28T13:53:29;97195.00;;;14.30
19666;BMP180;9980;51.020;7.772;2023-12-28T13:55:56;97193.00;;;14.30
19666;BMP180;9980;51.020;7.772;2023-12-28T13:58:23;97199.00;;;14.30
19666;BMP180;9980;51.020;7.772;2023-12-28T14:00:49;97203.00;;;14.20
19666;BMP180;9980;51.020;7.772;2023-12-28T14:03:16;97188.00;;;14.20
19666;BMP180;9980;51.020;7.772;2023-12-28T14:05:43;97203.00;;;14.20
19666;BMP180;9980;51.020;7.772;2023-12-28T14:08:11;97205.00;;;14.10
19666;BMP180;9980;51.020;7.772;2023-12-28T14:10:38;97209.00;;;14.10
19666;BMP180;9980;51.020;7.772;2023-12-28T14:13:05;97206.00;;;14.10
19666;BMP180;9980;51.020;7.772;2023-12-28T14:15:32;97225.00;;;14.10
19666;BMP180;9980;51.020;7.772;2023-12-28T14:17:59;97210.00;;;14.00
19666;BMP180;9980;51.020;7.772;2023-12-28T14:20:27;97201.00;;;14.00
19666;BMP180;9980;51.020;7.772;2023-12-28T14:22:55;97206.00;;;13.90
19666;BMP180;9980;51.020;7.772;2023-12-28T14:25:23;97210.00;;;13.90
19666;BMP180;9980;51.020;7.772;2023-12-28T14:27:50;97206.00;;;13.90